Time;durP1;ratioP1;P1;durP2;ratioP2;P2;SDS_P1;SDS_P2;PMS_P1;PMS_P2;Temp;Humidity;BMP_temperature;BMP_pressure;BME280_temperature;BME280_humidity;BME280_pressure;Samples;Min_cycle;Max_cycle;Signal;HPM_P1;HPM_P2
2023/02/06 00:01:47;;;;;;;;;2.00;2.00;;;;;7.87;100.00;103892.56;5095505;27;45399;-74
2023/02/06 00:04:13;;;;;;;;;3.00;1.00;;;;;7.85;100.00;103896.81;5076561;27;45475;-74
2023/02/06 00:06:38;;;;;;;;;6.00;3.50;;;;;7.82;100.00;103893.94;5095122;27;46850;-74
2023/02/06 00:09:05;;;;;;;;;6.25;2.00;;;;;7.79;100.00;103904.28;5074763;27;47085;-74
2023/02/06 00:11:30;;;;;;;;;3.25;2.25;;;;;7.77;100.00;103899.69;5094994;27;45448;-74
2023/02/06 00:13:55;;;;;;;;;8.75;2.00;;;;;7.72;100.00;103912.50;5091596;27;61267;-75
2023/02/06 00:16:25;;;;;;;;;6.00;1.00;;;;;7.74;100.00;103915.25;5076303;27;46619;-74
2023/02/06 00:18:51;;;;;;;;;4.75;3.50;;;;;7.70;100.00;103906.22;5098354;27;45648;-74
2023/02/06 00:21:20;;;;;;;;;3.75;3.00;;;;;7.70;100.00;103910.59;5079206;27;45272;-74
2023/02/06 00:23:46;;;;;;;;;5.75;1.75;;;;;7.68;100.00;103899.97;5077168;27;45403;-75
2023/02/06 00:26:11;;;;;;;;;1.00;1.00;;;;;7.66;100.00;103903.25;5080259;27;45285;-74
2023/02/06 00:28:37;;;;;;;;;6.75;2.25;;;;;7.63;100.00;103903.97;5082444;27;69961;-74
2023/02/06 00:31:06;;;;;;;;;3.50;1.75;;;;;7.63;100.00;103903.06;5095823;27;65495;-73
2023/02/06 00:33:32;;;;;;;;;8.00;2.25;;;;;7.63;100.00;103909.22;5080116;27;45482;-74
2023/02/06 00:35:57;;;;;;;;;5.25;1.00;;;;;7.66;100.00;103908.53;5057420;27;48582;-74
2023/02/06 00:38:23;;;;;;;;;2.00;2.00;;;;;7.65;100.00;103915.50;5079498;27;70563;-74
2023/02/06 00:40:48;;;;;;;;;3.00;2.00;;;;;7.61;100.00;103913.44;5098231;27;45710;-74
2023/02/06 00:43:13;;;;;;;;;5.75;3.00;;;;;7.65;100.00;103922.47;5098088;27;54315;-74
2023/02/06 00:45:39;;;;;;;;;2.75;1.00;;;;;7.65;100.00;103922.47;5097089;27;71593;-75
2023/02/06 00:48:04;;;;;;;;;3.00;3.00;;;;;7.55;100.00;103908.66;5080076;27;45641;-74
2023/02/06 00:50:30;;;;;;;;;6.25;2.00;;;;;7.59;100.00;103915.06;5080132;27;45500;-74
2023/02/06 00:52:55;;;;;;;;;7.25;2.75;;;;;7.58;100.00;103916.78;5098023;27;45513;-74
2023/02/06 00:55:20;;;;;;;;;7.00;1.50;;;;;7.58;100.00;103914.16;5098309;27;61140;-74
2023/02/06 00:57:46;;;;;;;;;4.50;1.00;;;;;7.57;100.00;103903.53;5097547;27;65371;-75
2023/02/06 01:00:12;;;;;;;;;1.00;1.00;;;;;7.56;100.00;103909.56;5098309;27;49378;-74
2023/02/06 01:02:37;;;;;;;;;2.25;1.00;;;;;7.54;100.00;103908.56;5096132;27;46711;-74
2023/02/06 01:05:03;;;;;;;;;2.00;1.00;;;;;7.55;100.00;103920.91;5096118;27;63413;-74
2023/02/06 01:07:28;;;;;;;;;7.25;1.75;;;;;7.53;100.00;103912.00;5086050;27;45807;-74
2023/02/06 01:09:54;;;;;;;;;2.75;2.00;;;;;7.52;100.00;103903.19;5074337;27;45474;-74
2023/02/06 01:12:19;;;;;;;;;2.00;1.25;;;;;7.52;100.00;103910.19;5068106;28;45659;-74
2023/02/06 01:14:44;;;;;;;;;7.25;6.00;;;;;7.50;100.00;103906.50;5055432;28;45488;-74
2023/02/06 01:17:10;;;;;;;;;5.00;1.00;;;;;7.49;100.00;103900.31;5051251;28;45458;-74
2023/02/06 01:19:38;;;;;;;;;5.00;2.50;;;;;7.49;100.00;103904.69;5050329;28;59974;-74
2023/02/06 01:22:04;;;;;;;;;4.25;2.00;;;;;7.48;100.00;103900.22;5053352;28;60982;-74
2023/02/06 01:24:29;;;;;;;;;8.00;2.00;;;;;7.48;100.00;103906.41;5052238;28;46947;-74
2023/02/06 01:26:55;;;;;;;;;3.00;1.75;;;;;7.47;100.00;103903.66;5055103;28;58008;-74
2023/02/06 01:29:20;;;;;;;;;9.00;2.00;;;;;7.45;100.00;103893.00;5056575;28;65059;-74
2023/02/06 01:31:45;;;;;;;;;2.75;2.75;;;;;7.47;100.00;103896.69;5055307;28;49881;-74
2023/02/06 01:34:11;;;;;;;;;3.00;2.25;;;;;7.49;100.00;103902.97;5071935;27;54610;-74
2023/02/06 01:36:36;;;;;;;;;9.00;6.25;;;;;7.47;100.00;103894.06;5053331;28;45410;-74
2023/02/06 01:39:02;;;;;;;;;1.25;1.25;;;;;7.47;100.00;103893.16;5052693;28;45431;-74
2023/02/06 01:41:28;;;;;;;;;6.00;3.00;;;;;7.46;100.00;103891.31;5056961;28;45536;-74
2023/02/06 01:44:12;;;;;;;;;3.25;3.25;;;;;7.45;100.00;103890.38;5051106;28;68725;-74
2023/02/06 01:46:39;;;;;;;;;5.75;2.00;;;;;7.46;100.00;103889.59;5054638;28;45583;-74
2023/02/06 01:49:07;;;;;;;;;8.00;1.75;;;;;7.46;100.00;103886.06;5055310;28;45731;-74
2023/02/06 01:51:32;;;;;;;;;2.00;1.50;;;;;7.42;100.00;103876.13;5055718;28;45454;-75
2023/02/06 01:54:00;;;;;;;;;5.75;0.50;;;;;7.46;100.00;103886.97;5054551;28;74827;-74
2023/02/06 01:56:28;;;;;;;;;11.25;3.00;;;;;7.42;100.00;103868.25;5056585;28;45482;-74
2023/02/06 01:58:58;;;;;;;;;9.75;1.50;;;;;7.41;100.00;103867.31;5052948;28;45400;-74
2023/02/06 02:01:23;;;;;;;;;4.25;1.50;;;;;7.39;100.00;103862.75;5055986;28;45593;-74
2023/02/06 02:03:53;;;;;;;;;8.00;2.50;;;;;7.37;100.00;103877.50;5049199;28;60605;-74
2023/02/06 02:06:21;;;;;;;;;8.00;2.00;;;;;7.32;100.00;103867.56;5048985;28;45497;-74
2023/02/06 02:08:49;;;;;;;;;7.50;2.50;;;;;7.33;100.00;103874.63;5053969;28;45458;-74
2023/02/06 02:11:26;;;;;;;;;6.00;4.50;;;;;7.32;100.00;103866.66;5055373;28;45596;-74
2023/02/06 02:13:52;;;;;;;;;5.75;3.00;;;;;7.32;100.00;103875.44;5078640;27;47097;-74
2023/02/06 02:16:26;;;;;;;;;7.00;3.00;;;;;7.31;100.00;103872.72;5073280;28;45439;-74
2023/02/06 02:19:13;;;;;;;;;2.50;2.50;;;;;7.32;100.00;103880.69;5071095;27;45890;-74
2023/02/06 02:22:10;;;;;;;;;4.75;2.25;;;;;7.31;100.00;103868.38;5075162;27;45751;-74
2023/02/06 02:24:52;;;;;;;;;6.25;3.00;;;;;7.31;100.00;103865.75;5073481;27;46880;-73
2023/02/06 02:27:27;;;;;;;;;9.50;6.50;;;;;7.30;100.00;103866.56;5074930;27;45586;-74
2023/02/06 02:30:10;;;;;;;;;3.50;2.25;;;;;7.29;100.00;103861.16;5076762;27;46983;-74
2023/02/06 02:32:51;;;;;;;;;5.75;5.75;;;;;7.29;100.00;103853.28;5064124;27;45480;-74
2023/02/06 02:35:39;;;;;;;;;2.50;2.50;;;;;7.27;100.00;103861.06;5065073;27;46779;-74
2023/02/06 02:38:13;;;;;;;;;3.75;3.00;;;;;7.27;100.00;103857.50;5072924;27;45347;-74
2023/02/06 02:40:46;;;;;;;;;9.00;5.00;;;;;7.26;100.00;103853.97;5071798;27;45272;-74
2023/02/06 02:43:44;;;;;;;;;3.00;3.00;;;;;7.26;100.00;103855.69;5073129;28;45560;-74
2023/02/06 02:46:27;;;;;;;;;8.75;5.75;;;;;7.25;100.00;103856.50;5038216;27;47010;-74
2023/02/06 02:48:54;;;;;;;;;5.25;2.00;;;;;7.19;100.00;103833.31;5075232;27;45312;-74
2023/02/06 02:51:20;;;;;;;;;7.00;2.00;;;;;7.17;100.00;103840.16;5075681;28;45431;-74
2023/02/06 02:53:45;;;;;;;;;7.75;2.50;;;;;7.18;100.00;103838.44;5062858;28;59205;-74
2023/02/06 02:56:15;;;;;;;;;3.00;1.75;;;;;7.16;100.00;103838.34;5070493;28;46063;-74
2023/02/06 02:58:41;;;;;;;;;7.00;2.00;;;;;7.12;100.00;103824.84;5074004;27;45463;-74
2023/02/06 03:01:10;;;;;;;;;2.75;2.00;;;;;7.09;100.00;103836.97;5074596;28;59793;-74
2023/02/06 03:03:37;;;;;;;;;2.00;1.00;;;;;7.09;100.00;103828.19;5089044;27;45253;-74
2023/02/06 03:06:39;;;;;;;;;7.50;2.50;;;;;7.09;100.00;103836.06;5075989;27;45670;-74
2023/02/06 03:09:10;;;;;;;;;2.50;2.00;;;;;7.08;100.00;103832.53;5067700;28;45417;-74
2023/02/06 03:11:42;;;;;;;;;4.00;2.00;;;;;7.07;100.00;103828.06;5065903;27;45509;-74
2023/02/06 03:14:10;;;;;;;;;5.25;1.50;;;;;7.09;100.00;103825.56;5075011;27;45571;-74
2023/02/06 03:16:39;;;;;;;;;6.50;2.75;;;;;7.06;100.00;103825.31;5075072;28;45763;-74
2023/02/06 03:19:04;;;;;;;;;4.75;1.25;;;;;7.08;100.00;103828.97;5058384;27;45236;-74
2023/02/06 03:21:31;;;;;;;;;5.00;2.75;;;;;7.06;100.00;103820.97;5073621;27;45506;-74
2023/02/06 03:24:00;;;;;;;;;1.50;1.00;;;;;7.06;100.00;103814.81;5057160;28;61037;-74
2023/02/06 03:26:28;;;;;;;;;2.00;2.00;;;;;7.04;100.00;103808.56;5053600;28;46808;-74
2023/02/06 03:28:57;;;;;;;;;9.75;3.00;;;;;7.05;100.00;103813.00;5058458;28;45312;-74
2023/02/06 03:31:31;;;;;;;;;3.75;2.00;;;;;7.05;100.00;103806.03;5054097;27;45824;-74
2023/02/06 03:34:06;;;;;;;;;5.00;2.75;;;;;7.06;100.00;103796.41;5057705;28;45303;-74
2023/02/06 03:36:32;;;;;;;;;1.00;1.00;;;;;7.06;100.00;103799.06;5054256;28;46592;-74
2023/02/06 03:38:57;;;;;;;;;10.00;3.00;;;;;7.05;100.00;103800.78;5056188;28;63429;-74
2023/02/06 03:41:27;;;;;;;;;5.25;1.75;;;;;7.03;100.00;103789.25;5051986;27;45641;-74
2023/02/06 03:43:53;;;;;;;;;1.25;1.00;;;;;7.03;100.00;103798.81;5057743;28;45458;-74
2023/02/06 03:46:19;;;;;;;;;2.25;2.00;;;;;7.01;100.00;103790.84;5053769;28;45664;-74
2023/02/06 03:48:48;;;;;;;;;8.25;2.50;;;;;6.98;100.00;103789.72;5069524;27;63765;-74
2023/02/06 03:51:18;;;;;;;;;5.00;2.75;;;;;7.00;100.00;103793.34;5066877;27;45549;-74
2023/02/06 03:53:45;;;;;;;;;2.25;2.25;;;;;7.00;100.00;103790.72;5073653;27;45550;-74
2023/02/06 03:56:18;;;;;;;;;5.00;3.50;;;;;6.97;100.00;103794.03;5056943;28;46550;-74
2023/02/06 03:58:44;;;;;;;;;6.75;2.50;;;;;6.95;100.00;103795.63;5056871;28;45371;-74
2023/02/06 04:01:10;;;;;;;;;5.75;2.25;;;;;6.96;100.00;103791.28;5059122;27;46405;-74
2023/02/06 04:03:35;;;;;;;;;2.25;2.00;;;;;6.97;100.00;103794.03;5053306;28;57118;-74
2023/02/06 04:06:01;;;;;;;;;4.50;2.00;;;;;6.96;100.00;103778.16;5077875;27;69006;-74
2023/02/06 04:08:26;;;;;;;;;9.25;3.00;;;;;6.96;100.00;103791.28;5075593;27;45475;-74
2023/02/06 04:10:51;;;;;;;;;4.25;2.25;;;;;6.96;100.00;103784.31;5072796;27;49975;-74
2023/02/06 04:13:17;;;;;;;;;4.25;1.50;;;;;6.95;100.00;103773.72;5076595;27;45471;-74
2023/02/06 04:15:42;;;;;;;;;5.00;2.25;;;;;6.94;100.00;103782.41;5081435;27;46910;-74
2023/02/06 04:18:08;;;;;;;;;2.25;2.25;;;;;6.94;100.00;103772.81;5071834;27;45517;-74
2023/02/06 04:20:33;;;;;;;;;5.25;2.00;;;;;6.95;100.00;103779.88;5062478;28;63363;-74
2023/02/06 04:22:59;;;;;;;;;8.00;2.25;;;;;6.95;100.00;103777.25;5077269;27;45377;-74
2023/02/06 04:25:24;;;;;;;;;1.00;0.50;;;;;6.93;100.00;103775.34;5078119;28;47497;-74
2023/02/06 04:27:50;;;;;;;;;3.00;1.00;;;;;6.92;100.00;103770.84;5059245;28;45398;-73
2023/02/06 04:30:16;;;;;;;;;5.00;1.00;;;;;6.90;100.00;103769.84;5076044;27;45581;-74
2023/02/06 04:32:42;;;;;;;;;6.50;2.00;;;;;6.90;100.00;103761.97;5059694;28;45529;-74
2023/02/06 04:35:07;;;;;;;;;4.50;2.50;;;;;6.88;100.00;103761.84;5077238;27;60513;-74
2023/02/06 04:37:32;;;;;;;;;1.00;1.00;;;;;6.87;100.00;103756.47;5059550;28;45516;-74
2023/02/06 04:39:58;;;;;;;;;1.25;1.25;;;;;6.90;100.00;103765.50;5075711;27;60876;-74
2023/02/06 04:42:23;;;;;;;;;3.25;2.50;;;;;6.88;100.00;103753.06;5068931;28;59207;-74
2023/02/06 04:44:48;;;;;;;;;5.75;1.00;;;;;6.86;100.00;103752.03;5069697;27;68310;-74
2023/02/06 04:47:14;;;;;;;;;1.50;1.50;;;;;6.82;100.00;103754.44;5059233;27;46127;-74
2023/02/06 04:49:39;;;;;;;;;3.75;1.75;;;;;6.79;100.00;103745.41;5075199;27;58826;-74
2023/02/06 04:52:04;;;;;;;;;2.75;1.50;;;;;6.80;100.00;103757.75;5054778;28;60271;-74
2023/02/06 04:54:30;;;;;;;;;2.25;0.00;;;;;6.79;100.00;103762.09;5073762;27;46324;-74
2023/02/06 04:56:55;;;;;;;;;2.50;1.75;;;;;6.78;100.00;103767.22;5078526;27;45482;-74
2023/02/06 04:59:20;;;;;;;;;6.00;1.75;;;;;6.78;100.00;103769.88;5052363;28;45655;-74
2023/02/06 05:01:46;;;;;;;;;7.50;2.00;;;;;6.77;100.00;103773.28;5069630;27;61016;-74
2023/02/06 05:04:12;;;;;;;;;2.75;1.75;;;;;6.74;100.00;103765.19;5062718;27;45685;-75
2023/02/06 05:06:37;;;;;;;;;5.75;2.00;;;;;6.73;100.00;103765.97;5078928;27;63942;-73
2023/02/06 05:09:03;;;;;;;;;10.25;2.25;;;;;6.72;100.00;103764.16;5077919;27;45225;-74
2023/02/06 05:11:28;;;;;;;;;7.25;2.25;;;;;6.66;100.00;103756.75;5058560;28;45422;-74
2023/02/06 05:13:53;;;;;;;;;5.50;1.50;;;;;6.71;100.00;103767.56;5075039;27;67653;-74
2023/02/06 05:16:19;;;;;;;;;3.25;2.00;;;;;6.67;100.00;103769.06;5062304;28;65294;-74
2023/02/06 05:18:45;;;;;;;;;7.75;2.00;;;;;6.68;100.00;103762.09;5073317;27;59810;-74
2023/02/06 05:21:11;;;;;;;;;6.25;2.25;;;;;6.67;100.00;103757.66;5073594;27;45569;-74
2023/02/06 05:23:36;;;;;;;;;6.50;1.75;;;;;6.66;100.00;103759.38;5055970;28;45449;-75
2023/02/06 05:26:02;;;;;;;;;8.00;1.25;;;;;6.69;100.00;103783.22;5063775;27;50909;-74
2023/02/06 05:28:32;;;;;;;;;5.75;2.00;;;;;6.69;100.00;103764.84;5078562;27;59304;-74
2023/02/06 05:30:58;;;;;;;;;3.25;2.00;;;;;6.66;100.00;103759.38;5073773;28;46610;-74
2023/02/06 05:33:24;;;;;;;;;9.75;3.00;;;;;6.65;100.00;103756.63;5058680;28;48609;-74
2023/02/06 05:35:49;;;;;;;;;13.25;3.00;;;;;6.65;100.00;103764.50;5077644;28;45461;-74
2023/02/06 05:38:14;;;;;;;;;3.25;3.25;;;;;6.64;100.00;103768.81;5058061;28;61770;-74
2023/02/06 05:40:40;;;;;;;;;2.00;2.00;;;;;6.66;100.00;103766.31;5059655;28;45657;-74
2023/02/06 05:43:05;;;;;;;;;2.00;2.00;;;;;6.65;100.00;103768.03;5059190;28;45709;-74
2023/02/06 05:45:30;;;;;;;;;3.50;2.00;;;;;6.65;100.00;103772.38;5073749;27;45438;-74
2023/02/06 05:47:56;;;;;;;;;5.00;2.00;;;;;6.64;100.00;103775.78;5042058;28;59429;-74
2023/02/06 05:50:21;;;;;;;;;2.00;2.00;;;;;6.64;100.00;103781.03;5058722;28;62926;-74
2023/02/06 05:52:46;;;;;;;;;10.25;2.50;;;;;6.59;100.00;103766.66;5054297;28;72063;-74
2023/02/06 05:55:12;;;;;;;;;5.25;1.50;;;;;6.62;100.00;103767.81;5075636;27;67937;-74
2023/02/06 05:57:37;;;;;;;;;3.00;1.25;;;;;6.64;100.00;103765.28;5053512;28;45528;-74
2023/02/06 06:00:04;;;;;;;;;8.00;1.75;;;;;6.62;100.00;103767.81;5058683;28;45721;-74
2023/02/06 06:02:29;;;;;;;;;6.25;2.00;;;;;6.62;100.00;103770.44;5075949;28;46698;-74
2023/02/06 06:04:55;;;;;;;;;3.25;3.25;;;;;6.62;100.00;103780.03;5074961;28;45601;-74
2023/02/06 06:07:20;;;;;;;;;4.50;1.00;;;;;6.59;100.00;103788.56;5071270;27;62637;-74
2023/02/06 06:09:45;;;;;;;;;3.25;1.50;;;;;6.63;100.00;103781.84;5071521;27;57036;-74
2023/02/06 06:12:11;;;;;;;;;9.00;2.00;;;;;6.61;100.00;103779.13;5052355;28;45737;-74
2023/02/06 06:14:36;;;;;;;;;2.50;0.00;;;;;6.59;100.00;103788.56;5055924;28;45542;-74
2023/02/06 06:17:01;;;;;;;;;1.00;1.00;;;;;6.57;100.00;103785.84;5056691;28;52051;-73
2023/02/06 06:19:27;;;;;;;;;5.50;2.00;;;;;6.61;100.00;103794.88;5053727;28;57194;-75
2023/02/06 06:21:52;;;;;;;;;5.50;2.50;;;;;6.61;100.00;103788.72;5054856;28;71384;-73
2023/02/06 06:24:17;;;;;;;;;5.50;3.00;;;;;6.59;100.00;103790.28;5055576;28;66101;-73
2023/02/06 06:26:42;;;;;;;;;2.25;2.00;;;;;6.60;100.00;103789.47;5055064;28;60272;-74
2023/02/06 06:29:08;;;;;;;;;3.25;2.00;;;;;6.59;100.00;103801.69;5036735;28;62360;-74
2023/02/06 06:31:33;;;;;;;;;5.50;2.75;;;;;6.58;100.00;103799.88;5052309;28;69077;-75
2023/02/06 06:33:58;;;;;;;;;2.00;2.00;;;;;6.54;100.00;103790.84;5054800;28;61882;-74
2023/02/06 06:36:24;;;;;;;;;5.25;2.25;;;;;6.54;100.00;103796.09;5051243;28;60712;-75
2023/02/06 06:38:49;;;;;;;;;1.50;1.00;;;;;6.53;100.00;103794.28;5055584;28;45289;-74
2023/02/06 06:41:14;;;;;;;;;5.00;2.00;;;;;6.52;100.00;103797.72;5051218;28;69937;-74
2023/02/06 06:43:41;;;;;;;;;6.00;1.75;;;;;6.50;100.00;103791.44;5037567;28;46862;-74
2023/02/06 06:46:06;;;;;;;;;7.25;2.00;;;;;6.51;100.00;103797.59;5051321;28;45440;-74
2023/02/06 06:48:32;;;;;;;;;1.25;1.00;;;;;6.49;100.00;103801.81;5031172;28;45298;-75
2023/02/06 06:50:57;;;;;;;;;4.75;4.75;;;;;6.49;100.00;103805.34;5051711;28;46181;-74
2023/02/06 06:53:22;;;;;;;;;5.00;3.25;;;;;6.49;100.00;103802.72;5036676;28;64778;-75
2023/02/06 06:55:48;;;;;;;;;6.25;5.00;;;;;6.48;100.00;103798.28;5054042;28;60684;-74
2023/02/06 06:58:14;;;;;;;;;3.75;2.75;;;;;6.47;100.00;103800.78;5037418;28;50999;-75
2023/02/06 07:00:39;;;;;;;;;4.75;3.25;;;;;6.42;100.00;103789.94;5055490;28;46754;-74
2023/02/06 07:03:05;;;;;;;;;5.25;2.00;;;;;6.43;100.00;103782.97;5029848;28;45540;-73
2023/02/06 07:05:31;;;;;;;;;6.50;3.25;;;;;6.41;100.00;103784.59;5054111;28;45495;-74
2023/02/06 07:07:56;;;;;;;;;8.75;4.50;;;;;6.41;100.00;103792.47;5057734;28;45399;-75
2023/02/06 07:10:22;;;;;;;;;8.00;3.25;;;;;6.36;100.00;103784.25;5054153;28;58474;-73
2023/02/06 07:12:47;;;;;;;;;4.25;4.00;;;;;6.33;100.00;103780.47;5079356;27;66191;-73
2023/02/06 07:15:13;;;;;;;;;5.75;2.00;;;;;6.30;100.00;103783.78;5094834;27;62760;-75
2023/02/06 07:17:39;;;;;;;;;10.00;4.75;;;;;6.24;100.00;103778.97;5077197;27;54625;-74
2023/02/06 07:20:04;;;;;;;;;7.00;2.00;;;;;6.23;100.00;103778.84;5075712;27;46616;-75
2023/02/06 07:22:30;;;;;;;;;6.75;5.00;;;;;6.23;100.00;103777.16;5069932;27;45570;-73
2023/02/06 07:24:55;;;;;;;;;3.75;3.75;;;;;6.25;100.00;103777.25;5086761;27;45620;-74
2023/02/06 07:27:21;;;;;;;;;9.50;5.50;;;;;6.27;100.00;103776.56;5092112;27;61982;-73
2023/02/06 07:29:46;;;;;;;;;5.75;3.25;;;;;6.27;100.00;103789.69;5090410;27;46190;-73
2023/02/06 07:32:11;;;;;;;;;6.50;5.00;;;;;6.28;100.00;103791.53;5093559;27;55548;-73
2023/02/06 07:34:37;;;;;;;;;5.50;2.25;;;;;6.26;100.00;103787.88;5092028;27;54248;-73
2023/02/06 07:37:03;;;;;;;;;8.00;3.25;;;;;6.20;100.00;103771.66;5075622;27;45605;-73
2023/02/06 07:39:28;;;;;;;;;8.50;2.50;;;;;6.23;100.00;103786.72;5088510;27;46504;-73
2023/02/06 07:41:53;;;;;;;;;8.00;2.25;;;;;6.24;100.00;103796.44;5052589;27;45423;-74
2023/02/06 07:44:19;;;;;;;;;9.00;4.00;;;;;6.22;100.00;103788.44;5069138;27;45603;-74
2023/02/06 07:46:44;;;;;;;;;7.25;5.50;;;;;6.22;100.00;103796.28;5094550;27;45448;-75
2023/02/06 07:49:16;;;;;;;;;6.00;2.00;;;;;6.24;100.00;103794.72;5092276;27;45960;-74
2023/02/06 07:51:42;;;;;;;;;5.75;5.75;;;;;6.22;100.00;103793.69;5074261;27;45614;-75
2023/02/06 07:54:08;;;;;;;;;8.00;4.25;;;;;6.27;100.00;103801.91;5095257;27;45265;-74
2023/02/06 07:56:33;;;;;;;;;7.50;5.00;;;;;6.24;100.00;103796.44;5094540;27;45640;-75
2023/02/06 07:58:58;;;;;;;;;7.25;5.00;;;;;6.23;100.00;103795.53;5093565;27;64321;-75
2023/02/06 08:01:24;;;;;;;;;2.50;2.50;;;;;6.26;100.00;103803.63;5091505;27;45285;-75
2023/02/06 08:03:50;;;;;;;;;10.75;2.00;;;;;6.23;100.00;103798.16;5077790;27;45692;-74
2023/02/06 08:06:16;;;;;;;;;5.50;2.75;;;;;6.26;100.00;103798.38;5076376;27;45502;-75
2023/02/06 08:08:42;;;;;;;;;4.50;4.25;;;;;6.26;100.00;103795.75;5076865;27;51230;-74
2023/02/06 08:13:43;;;;;;;;;6.00;3.25;;;;;6.34;100.00;103801.59;5007435;25;45418;-74
2023/02/06 08:16:12;;;;;;;;;6.25;2.00;;;;;6.34;100.00;103787.53;5032310;28;45491;-74
2023/02/06 08:18:38;;;;;;;;;4.75;2.50;;;;;6.36;100.00;103793.81;5019455;28;48675;-74
2023/02/06 08:21:05;;;;;;;;;5.75;5.75;;;;;6.38;100.00;103798.38;5050777;28;45818;-74
2023/02/06 08:23:31;;;;;;;;;7.50;3.25;;;;;6.38;100.00;103801.00;5033446;28;47060;-74
2023/02/06 08:26:08;;;;;;;;;9.75;5.75;;;;;6.39;100.00;103809.78;5033617;28;45606;-75
2023/02/06 08:28:34;;;;;;;;;9.25;3.25;;;;;6.40;100.00;103811.63;5053036;28;46753;-73
2023/02/06 08:31:01;;;;;;;;;5.50;4.00;;;;;6.42;100.00;103808.31;5032029;28;45558;-74
2023/02/06 08:33:26;;;;;;;;;9.25;4.25;;;;;6.39;100.00;103792.34;5033432;28;47107;-73
2023/02/06 08:35:52;;;;;;;;;7.00;3.25;;;;;6.45;100.00;103794.53;5029548;28;45720;-74
2023/02/06 08:38:18;;;;;;;;;7.25;2.75;;;;;6.49;100.00;103786.97;5035170;28;46598;-74
2023/02/06 08:40:43;;;;;;;;;6.25;2.00;;;;;6.50;100.00;103794.06;5034594;28;45498;-77
2023/02/06 08:43:09;;;;;;;;;8.75;5.00;;;;;6.51;100.00;103785.41;5034901;28;45447;-76
2023/02/06 08:45:35;;;;;;;;;9.50;4.50;;;;;6.55;100.00;103779.59;5054507;28;45536;-77
2023/02/06 08:48:00;;;;;;;;;3.25;2.00;;;;;6.56;100.00;103767.38;5036388;28;56504;-73
2023/02/06 08:50:25;;;;;;;;;9.00;3.00;;;;;6.56;100.00;103757.78;5035557;28;45490;-74
2023/02/06 08:52:51;;;;;;;;;7.75;6.25;;;;;6.61;100.00;103754.59;5053514;28;59304;-73
2023/02/06 08:55:16;;;;;;;;;3.25;3.25;;;;;6.63;100.00;103752.97;5053348;28;53208;-74
2023/02/06 08:57:41;;;;;;;;;5.50;3.00;;;;;6.64;100.00;103753.06;5053531;28;45948;-73
2023/02/06 09:00:07;;;;;;;;;7.75;5.00;;;;;6.66;100.00;103745.31;5034784;28;66582;-75
2023/02/06 09:02:34;;;;;;;;;12.75;4.50;;;;;6.68;100.00;103756.84;5032989;28;45516;-76
2023/02/06 09:04:59;;;;;;;;;4.00;4.00;;;;;6.72;100.00;103759.81;5051981;28;45947;-77
2023/02/06 09:07:25;;;;;;;;;6.50;4.50;;;;;6.75;100.00;103757.41;5037877;28;45946;-76
2023/02/06 09:09:51;;;;;;;;;9.25;6.00;;;;;6.77;100.00;103761.06;5055186;28;45321;-77
2023/02/06 09:12:16;;;;;;;;;9.50;4.75;;;;;6.81;100.00;103759.56;5051590;28;45418;-76
2023/02/06 09:14:42;;;;;;;;;4.50;3.00;;;;;6.83;100.00;103761.53;5037728;28;45579;-77
2023/02/06 09:17:07;;;;;;;;;8.50;4.50;;;;;6.87;100.00;103756.47;5054737;28;46516;-77
2023/02/06 09:19:33;;;;;;;;;6.00;4.50;;;;;6.88;100.00;103753.06;5057863;28;45419;-76
2023/02/06 09:21:58;;;;;;;;;11.00;6.00;;;;;6.92;100.00;103752.47;5034682;28;45941;-77
2023/02/06 09:24:26;;;;;;;;;8.75;5.75;;;;;6.96;100.00;103762.41;5031877;28;45654;-79
2023/02/06 09:26:51;;;;;;;;;5.00;5.00;;;;;6.98;100.00;103764.34;5034865;28;46725;-76
2023/02/06 09:29:16;;;;;;;;;8.75;4.50;;;;;7.00;100.00;103768.00;5040795;28;45443;-76
2023/02/06 09:31:42;;;;;;;;;11.75;8.00;;;;;7.08;100.00;103777.38;5053638;28;45799;-79
2023/02/06 09:34:09;;;;;;;;;4.50;4.50;;;;;7.11;100.00;103762.59;5032189;28;45335;-76
2023/02/06 09:36:35;;;;;;;;;5.25;3.00;;;;;7.17;100.00;103761.31;5034882;28;46089;-75
2023/02/06 09:39:04;;;;;;;;;8.25;4.00;;;;;7.24;100.00;103760.03;5057457;28;45883;-77
2023/02/06 09:41:35;;;;;;;;;11.75;8.50;;;;;7.29;100.00;103753.41;5036122;28;45379;-77
2023/02/06 09:44:24;;;;;;;;;6.00;5.00;;;;;7.37;100.00;103762.75;5056705;28;45556;-77
2023/02/06 09:46:54;;;;;;;;;5.25;3.50;;;;;7.46;100.00;103767.78;5024521;28;48379;-79
2023/02/06 09:49:28;;;;;;;;;9.25;6.50;;;;;7.55;100.00;103758.78;5038011;28;45460;-76
2023/02/06 09:52:30;;;;;;;;;6.50;6.50;;;;;7.66;100.00;103772.69;5055561;28;45426;-76
2023/02/06 09:55:02;;;;;;;;;11.75;6.50;;;;;7.74;100.00;103755.72;5031397;28;45630;-76
2023/02/06 09:57:38;;;;;;;;;8.25;6.00;;;;;7.85;100.00;103753.84;5031836;28;46485;-76
2023/02/06 10:00:11;;;;;;;;;6.00;5.00;;;;;7.96;100.00;103759.84;5029913;28;45348;-77
2023/02/06 10:02:57;;;;;;;;;15.75;6.00;;;;;8.10;100.00;103765.25;5054273;28;45502;-77
2023/02/06 10:05:58;;;;;;;;;6.00;5.75;;;;;8.24;100.00;103757.38;5018842;28;45384;-79
2023/02/06 10:08:37;;;;;;;;;10.75;5.50;;;;;8.38;100.00;103752.25;5025517;28;48397;-79
2023/02/06 10:11:10;;;;;;;;;11.00;6.75;;;;;8.48;100.00;103759.06;5036710;28;45558;-76
2023/02/06 10:13:48;;;;;;;;;10.25;6.25;;;;;8.60;100.00;103759.84;5037075;28;46012;-77
2023/02/06 10:16:19;;;;;;;;;7.25;3.00;;;;;8.71;100.00;103767.56;5038166;28;45508;-77
2023/02/06 10:18:49;;;;;;;;;6.00;5.00;;;;;8.76;100.00;103759.13;5054006;28;45697;-76
2023/02/06 10:21:27;;;;;;;;;6.25;3.75;;;;;8.81;100.00;103764.72;5031170;28;45586;-77
2023/02/06 10:24:12;;;;;;;;;11.00;6.00;;;;;8.78;100.00;103765.41;5051024;28;46499;-77
2023/02/06 10:26:39;;;;;;;;;8.00;7.00;;;;;8.76;100.00;103761.78;5051530;28;45484;-76
2023/02/06 10:29:05;;;;;;;;;11.50;7.00;;;;;8.73;100.00;103772.09;5035523;28;47503;-76
2023/02/06 10:31:49;;;;;;;;;12.50;9.00;;;;;8.76;100.00;103760.88;5036152;28;45571;-77
2023/02/06 10:34:34;;;;;;;;;9.75;7.00;;;;;8.80;100.00;103762.91;5038555;28;45541;-77
2023/02/06 10:37:28;;;;;;;;;7.75;5.25;;;;;8.80;100.00;103763.81;5033557;28;45624;-76
2023/02/06 10:40:00;;;;;;;;;8.00;5.50;;;;;8.78;100.00;103757.50;5039672;28;45580;-76
2023/02/06 10:42:31;;;;;;;;;6.75;6.00;;;;;8.74;100.00;103750.22;5038016;28;45835;-77
2023/02/06 10:45:15;;;;;;;;;11.50;5.75;;;;;8.69;100.00;103751.66;5055428;28;45620;-75
2023/02/06 10:47:54;;;;;;;;;15.75;8.00;;;;;8.72;100.00;103746.56;5056464;28;45534;-76
2023/02/06 10:50:30;;;;;;;;;8.75;7.25;;;;;8.79;100.00;103746.19;5034226;28;46845;-77
2023/02/06 10:52:59;;;;;;;;;11.25;6.75;;;;;8.91;100.00;103746.06;5018914;28;45565;-76
2023/02/06 10:55:27;;;;;;;;;9.50;7.75;;;;;9.03;100.00;103738.94;5034588;28;45529;-76
2023/02/06 10:58:16;;;;;;;;;7.50;4.25;;;;;9.19;100.00;103728.53;5054522;28;47199;-76
2023/02/06 11:00:43;;;;;;;;;8.75;6.25;;;;;9.32;100.00;103727.59;5036916;28;49228;-75
2023/02/06 11:03:15;;;;;;;;;12.00;8.00;;;;;9.38;100.00;103727.97;5029553;28;45652;-76
2023/02/06 11:05:40;;;;;;;;;8.75;5.50;;;;;9.42;100.00;103732.59;5018466;28;45368;-76
2023/02/06 11:08:43;;;;;;;;;7.25;6.00;;;;;9.39;100.00;103729.78;5056446;28;45665;-76
2023/02/06 11:11:19;;;;;;;;;7.00;4.00;;;;;9.31;100.00;103733.66;4989544;28;46549;-78
2023/02/06 11:13:47;;;;;;;;;9.00;5.75;;;;;9.27;100.00;103729.03;5030923;28;45459;-77
2023/02/06 11:16:15;;;;;;;;;12.50;5.00;;;;;9.20;100.00;103718.91;5033914;28;45481;-79
2023/02/06 11:18:43;;;;;;;;;7.50;6.00;;;;;9.23;100.00;103723.47;5033143;28;45720;-80
2023/02/06 11:21:11;;;;;;;;;5.75;3.00;;;;;9.22;100.00;103721.66;5031612;28;46506;-75
2023/02/06 11:23:37;;;;;;;;;8.25;6.25;;;;;9.22;100.00;103725.19;5032471;28;45575;-75
2023/02/06 11:26:21;;;;;;;;;9.00;7.00;;;;;9.19;100.00;103718.00;5053969;28;45562;-76
2023/02/06 11:28:51;;;;;;;;;7.25;3.25;;;;;9.16;100.00;103720.47;5045815;28;45403;-76
2023/02/06 11:31:18;;;;;;;;;9.75;4.00;;;;;9.11;100.00;103710.44;5031173;28;45831;-76
2023/02/06 11:33:49;;;;;;;;;10.00;4.50;;;;;9.09;100.00;103705.03;5033317;28;45589;-76